sensor_id;sensor_type;location;lat;lon;timestamp;temperature;humidity
43963;DHT22;29622;45.534;9.242;2022-10-30T01:02:28;17.30;59.30
43963;DHT22;29622;45.534;9.242;2022-10-30T01:14:07;17.20;59.40
43963;DHT22;29622;45.534;9.242;2022-10-30T02:30:11;16.60;60.60
43963;DHT22;29622;45.534;9.242;2022-10-30T05:44:22;16.70;59.60
43963;DHT22;29622;45.534;9.242;2022-10-30T05:49:41;16.50;59.70
43963;DHT22;29622;45.534;9.242;2022-10-30T06:39:12;16.10;60.90
43963;DHT22;29622;45.534;9.242;2022-10-30T07:03:35;16.80;59.60
43963;DHT22;29622;45.534;9.242;2022-10-30T07:09:47;16.50;59.80
43963;DHT22;29622;45.534;9.242;2022-10-30T07:14:39;16.50;59.90
43963;DHT22;29622;45.534;9.242;2022-10-30T07:20:36;16.50;60.00
43963;DHT22;29622;45.534;9.242;2022-10-30T07:39:00;16.70;59.90
43963;DHT22;29622;45.534;9.242;2022-10-30T07:50:36;17.00;59.80
43963;DHT22;29622;45.534;9.242;2022-10-30T07:55:37;17.10;59.50
43963;DHT22;29622;45.534;9.242;2022-10-30T08:00:48;17.30;59.40
43963;DHT22;29622;45.534;9.242;2022-10-30T08:06:03;17.40;59.20
43963;DHT22;29622;45.534;9.242;2022-10-30T08:11:13;17.50;59.10
43963;DHT22;29622;45.534;9.242;2022-10-30T08:55:14;18.30;57.90
43963;DHT22;29622;45.534;9.242;2022-10-30T09:00:30;18.50;57.60
43963;DHT22;29622;45.534;9.242;2022-10-30T09:05:50;18.40;57.60
43963;DHT22;29622;45.534;9.242;2022-10-30T09:11:38;18.40;57.40
43963;DHT22;29622;45.534;9.242;2022-10-30T09:16:39;18.40;57.40
43963;DHT22;29622;45.534;9.242;2022-10-30T09:21:42;18.50;57.40
43963;DHT22;29622;45.534;9.242;2022-10-30T09:26:43;18.60;57.30
43963;DHT22;29622;45.534;9.242;2022-10-30T09:32:01;18.80;57.20
43963;DHT22;29622;45.534;9.242;2022-10-30T09:37:05;19.00;57.00
43963;DHT22;29622;45.534;9.242;2022-10-30T09:42:36;19.20;56.70
43963;DHT22;29622;45.534;9.242;2022-10-30T09:53:32;19.40;56.20
43963;DHT22;29622;45.534;9.242;2022-10-30T09:58:50;19.50;56.20
43963;DHT22;29622;45.534;9.242;2022-10-30T10:09:30;19.80;56.00
43963;DHT22;29622;45.534;9.242;2022-10-30T10:14:51;20.00;55.60
43963;DHT22;29622;45.534;9.242;2022-10-30T10:19:58;20.20;55.40
43963;DHT22;29622;45.534;9.242;2022-10-30T10:25:02;20.20;55.20
43963;DHT22;29622;45.534;9.242;2022-10-30T10:30:11;20.30;55.10
43963;DHT22;29622;45.534;9.242;2022-10-30T10:35:28;20.50;54.80
43963;DHT22;29622;45.534;9.242;2022-10-30T10:40:49;20.80;54.60
43963;DHT22;29622;45.534;9.242;2022-10-30T10:51:20;21.10;54.00
43963;DHT22;29622;45.534;9.242;2022-10-30T10:56:26;21.20;53.80
43963;DHT22;29622;45.534;9.242;2022-10-30T11:01:37;21.40;53.70
43963;DHT22;29622;45.534;9.242;2022-10-30T11:06:40;21.60;53.40
43963;DHT22;29622;45.534;9.242;2022-10-30T11:11:46;21.80;53.20
43963;DHT22;29622;45.534;9.242;2022-10-30T11:17:20;22.00;52.70
43963;DHT22;29622;45.534;9.242;2022-10-30T11:22:28;22.10;52.30
43963;DHT22;29622;45.534;9.242;2022-10-30T11:27:29;22.00;52.40
43963;DHT22;29622;45.534;9.242;2022-10-30T11:32:32;22.00;52.80
43963;DHT22;29622;45.534;9.242;2022-10-30T11:37:35;22.10;52.20
43963;DHT22;29622;45.534;9.242;2022-10-30T11:42:41;22.20;51.90
43963;DHT22;29622;45.534;9.242;2022-10-30T11:47:42;22.20;51.80
43963;DHT22;29622;45.534;9.242;2022-10-30T11:52:43;22.30;51.70
43963;DHT22;29622;45.534;9.242;2022-10-30T11:57:49;22.30;51.60
43963;DHT22;29622;45.534;9.242;2022-10-30T12:02:58;22.40;51.40
43963;DHT22;29622;45.534;9.242;2022-10-30T12:13:15;22.70;51.00
43963;DHT22;29622;45.534;9.242;2022-10-30T12:18:26;22.80;50.80
43963;DHT22;29622;45.534;9.242;2022-10-30T12:23:28;22.90;50.50
43963;DHT22;29622;45.534;9.242;2022-10-30T12:28:30;23.00;50.50
43963;DHT22;29622;45.534;9.242;2022-10-30T12:39:04;23.20;49.70
43963;DHT22;29622;45.534;9.242;2022-10-30T12:44:17;23.30;49.30
43963;DHT22;29622;45.534;9.242;2022-10-30T12:49:42;23.30;49.40
43963;DHT22;29622;45.534;9.242;2022-10-30T12:54:53;23.30;49.30
43963;DHT22;29622;45.534;9.242;2022-10-30T13:00:00;23.30;48.90
43963;DHT22;29622;45.534;9.242;2022-10-30T13:05:38;23.40;48.90
43963;DHT22;29622;45.534;9.242;2022-10-30T13:10:45;23.60;48.90
43963;DHT22;29622;45.534;9.242;2022-10-30T13:15:49;23.70;48.50
43963;DHT22;29622;45.534;9.242;2022-10-30T13:26:26;23.70;48.20
43963;DHT22;29622;45.534;9.242;2022-10-30T13:36:59;23.90;48.20
43963;DHT22;29622;45.534;9.242;2022-10-30T13:47:42;24.00;48.40
43963;DHT22;29622;45.534;9.242;2022-10-30T13:52:49;24.10;48.20
43963;DHT22;29622;45.534;9.242;2022-10-30T13:58:11;24.10;48.00
43963;DHT22;29622;45.534;9.242;2022-10-30T14:09:07;24.30;47.40
43963;DHT22;29622;45.534;9.242;2022-10-30T14:14:24;24.30;47.20
43963;DHT22;29622;45.534;9.242;2022-10-30T14:19:27;24.30;47.30
43963;DHT22;29622;45.534;9.242;2022-10-30T14:24:30;24.20;47.40
43963;DHT22;29622;45.534;9.242;2022-10-30T14:34:40;24.00;47.50
43963;DHT22;29622;45.534;9.242;2022-10-30T14:39:46;24.20;47.40
43963;DHT22;29622;45.534;9.242;2022-10-30T14:55:29;24.10;47.30
43963;DHT22;29622;45.534;9.242;2022-10-30T15:05:54;24.20;47.20
43963;DHT22;29622;45.534;9.242;2022-10-30T15:16:15;24.10;46.80
43963;DHT22;29622;45.534;9.242;2022-10-30T15:21:19;24.10;46.90
43963;DHT22;29622;45.534;9.242;2022-10-30T15:26:31;24.10;47.00
43963;DHT22;29622;45.534;9.242;2022-10-30T15:31:34;24.20;47.20
43963;DHT22;29622;45.534;9.242;2022-10-30T15:36:40;24.00;47.20
43963;DHT22;29622;45.534;9.242;2022-10-30T15:41:42;23.90;47.40
43963;DHT22;29622;45.534;9.242;2022-10-30T15:46:48;23.80;47.50
43963;DHT22;29622;45.534;9.242;2022-10-30T15:51:50;23.70;47.60
43963;DHT22;29622;45.534;9.242;2022-10-30T15:56:54;23.60;47.70
43963;DHT22;29622;45.534;9.242;2022-10-30T16:01:57;23.40;47.70
43963;DHT22;29622;45.534;9.242;2022-10-30T16:07:08;23.30;47.90
43963;DHT22;29622;45.534;9.242;2022-10-30T16:12:15;23.20;48.10
43963;DHT22;29622;45.534;9.242;2022-10-30T16:17:15;23.00;48.30
43963;DHT22;29622;45.534;9.242;2022-10-30T16:22:34;22.90;48.60
43963;DHT22;29622;45.534;9.242;2022-10-30T16:27:43;22.70;48.70
43963;DHT22;29622;45.534;9.242;2022-10-30T16:32:49;22.50;49.00
43963;DHT22;29622;45.534;9.242;2022-10-30T16:37:52;22.40;49.30
43963;DHT22;29622;45.534;9.242;2022-10-30T16:42:57;22.50;49.50
43963;DHT22;29622;45.534;9.242;2022-10-30T16:48:00;22.40;49.50
43963;DHT22;29622;45.534;9.242;2022-10-30T16:53:06;22.20;49.80
43963;DHT22;29622;45.534;9.242;2022-10-30T16:58:11;22.10;50.10
43963;DHT22;29622;45.534;9.242;2022-10-30T17:03:13;21.90;50.40
43963;DHT22;29622;45.534;9.242;2022-10-30T17:13:38;21.70;50.90
43963;DHT22;29622;45.534;9.242;2022-10-30T17:18:42;21.60;51.30
43963;DHT22;29622;45.534;9.242;2022-10-30T17:23:47;21.50;51.30
43963;DHT22;29622;45.534;9.242;2022-10-30T17:28:49;21.40;51.60
43963;DHT22;29622;45.534;9.242;2022-10-30T17:34:15;21.40;51.80
43963;DHT22;29622;45.534;9.242;2022-10-30T17:39:16;21.40;52.10
43963;DHT22;29622;45.534;9.242;2022-10-30T17:44:18;21.30;52.10
43963;DHT22;29622;45.534;9.242;2022-10-30T17:49:30;21.20;52.30
43963;DHT22;29622;45.534;9.242;2022-10-30T17:54:31;21.10;52.50
43963;DHT22;29622;45.534;9.242;2022-10-30T17:59:32;21.10;52.60
43963;DHT22;29622;45.534;9.242;2022-10-30T18:04:33;21.00;52.80
43963;DHT22;29622;45.534;9.242;2022-10-30T18:09:33;20.90;53.00
43963;DHT22;29622;45.534;9.242;2022-10-30T18:14:34;20.80;53.10
43963;DHT22;29622;45.534;9.242;2022-10-30T18:19:35;21.00;53.80
43963;DHT22;29622;45.534;9.242;2022-10-30T18:24:35;21.50;53.30
43963;DHT22;29622;45.534;9.242;2022-10-30T18:29:36;21.30;53.00
43963;DHT22;29622;45.534;9.242;2022-10-30T18:35:13;21.20;53.30
43963;DHT22;29622;45.534;9.242;2022-10-30T18:40:14;21.00;53.40
43963;DHT22;29622;45.534;9.242;2022-10-30T18:45:21;20.80;53.70
43963;DHT22;29622;45.534;9.242;2022-10-30T18:50:23;20.60;54.00
43963;DHT22;29622;45.534;9.242;2022-10-30T19:00:31;20.50;54.30
43963;DHT22;29622;45.534;9.242;2022-10-30T19:05:39;20.40;54.50
43963;DHT22;29622;45.534;9.242;2022-10-30T19:10:42;20.20;54.70
43963;DHT22;29622;45.534;9.242;2022-10-30T19:15:48;20.40;55.20
43963;DHT22;29622;45.534;9.242;2022-10-30T19:20:49;20.40;54.70
43963;DHT22;29622;45.534;9.242;2022-10-30T19:25:50;20.10;54.90
43963;DHT22;29622;45.534;9.242;2022-10-30T19:30:51;19.90;55.30
43963;DHT22;29622;45.534;9.242;2022-10-30T19:36:01;19.70;55.50
43963;DHT22;29622;45.534;9.242;2022-10-30T19:41:04;19.50;55.70
43963;DHT22;29622;45.534;9.242;2022-10-30T19:46:07;19.40;55.80
43963;DHT22;29622;45.534;9.242;2022-10-30T19:51:08;19.20;56.00
43963;DHT22;29622;45.534;9.242;2022-10-30T19:56:12;19.00;56.30
43963;DHT22;29622;45.534;9.242;2022-10-30T20:01:14;18.80;56.50
43963;DHT22;29622;45.534;9.242;2022-10-30T20:06:14;18.70;56.70
43963;DHT22;29622;45.534;9.242;2022-10-30T20:11:15;18.60;57.00
43963;DHT22;29622;45.534;9.242;2022-10-30T20:16:16;18.40;57.30
43963;DHT22;29622;45.534;9.242;2022-10-30T20:21:18;18.30;57.50
43963;DHT22;29622;45.534;9.242;2022-10-30T20:26:27;18.30;57.70
43963;DHT22;29622;45.534;9.242;2022-10-30T20:31:28;18.30;57.80
43963;DHT22;29622;45.534;9.242;2022-10-30T20:36:29;18.20;57.80
43963;DHT22;29622;45.534;9.242;2022-10-30T20:41:30;18.20;57.90
43963;DHT22;29622;45.534;9.242;2022-10-30T20:46:31;18.20;58.00
43963;DHT22;29622;45.534;9.242;2022-10-30T20:51:32;18.20;58.50
43963;DHT22;29622;45.534;9.242;2022-10-30T20:56:32;18.10;58.20
43963;DHT22;29622;45.534;9.242;2022-10-30T21:01:33;18.00;58.30
43963;DHT22;29622;45.534;9.242;2022-10-30T21:06:33;18.00;58.30
43963;DHT22;29622;45.534;9.242;2022-10-30T21:54:19;17.90;58.90
43963;DHT22;29622;45.534;9.242;2022-10-30T22:52:15;17.80;59.20
